CRA023 TNCM-MRLB
Flight info
| Callsign | CRA023 |
|---|---|
| Flight time | 3h 41m |
| Altitude | 34000 |
| Route | MODOR2 GOUDA L204 MLIZA L335 SCAPA UL335 ELTES/N0489F360 UL335 TBG UA317 LIO UP401 TIO UG440 LIB |
| Aircraft | B77L/H-SDE1E2E3FGHIJ2J3J4J5M1RWXY/LB1D1 |
Departure
| Time | 2026-04-15 21:09 |
|---|---|
| Airport | Princess Juliana International Airport (TNCM) |
Arrival
| Time | 2026-04-16 00:50 |
|---|---|
| Airport | Daniel Oduber Quirós International Airport (MRLB) |
| Time | Latitude | Longitude | Altitude | Speed | Heading |
|---|---|---|---|---|---|
| 2026-04-15 20:55 | 18.04257 | -63.11545 | 25 ft | 0 kts | 320° |
| 2026-04-15 21:00 | 18.04255 | -63.11544 | 30 ft | 1 kts | 320° |
| 2026-04-15 21:00 | 18.04242 | -63.11533 | 30 ft | 2 kts | 320° |
| 2026-04-15 21:00 | 18.04230 | -63.11521 | 30 ft | 3 kts | 305° |
| 2026-04-15 21:01 | 18.04222 | -63.11506 | 30 ft | 3 kts | 278° |
| 2026-04-15 21:01 | 18.04222 | -63.11487 | 30 ft | 3 kts | 253° |
| 2026-04-15 21:01 | 18.04229 | -63.11468 | 30 ft | 3 kts | 239° |
| 2026-04-15 21:01 | 18.04240 | -63.11451 | 30 ft | 2 kts | 232° |
| 2026-04-15 21:02 | 18.04245 | -63.11443 | 30 ft | 1 kts | 232° |
| 2026-04-15 21:02 | 18.04246 | -63.11443 | 30 ft | 0 kts | 232° |
| 2026-04-15 21:04 | 18.04242 | -63.11448 | 31 ft | 6 kts | 232° |
| 2026-04-15 21:04 | 18.04198 | -63.11506 | 30 ft | 19 kts | 232° |
| 2026-04-15 21:04 | 18.04100 | -63.11638 | 30 ft | 23 kts | 238° |
| 2026-04-15 21:04 | 18.04047 | -63.11796 | 26 ft | 23 kts | 262° |
| 2026-04-15 21:05 | 18.03997 | -63.11945 | 28 ft | 9 kts | 226° |
| 2026-04-15 21:05 | 18.03980 | -63.11957 | 29 ft | 0 kts | 212° |
| 2026-04-15 21:05 | 18.03970 | -63.11960 | 28 ft | 8 kts | 191° |
| 2026-04-15 21:06 | 18.03938 | -63.11922 | 26 ft | 2 kts | 73° |
| 2026-04-15 21:08 | 18.03939 | -63.11918 | 26 ft | 8 kts | 73° |
| 2026-04-15 21:08 | 18.04007 | -63.11510 | 26 ft | 105 kts | 81° |
| 2026-04-15 21:08 | 18.04155 | -63.10438 | 114 ft | 184 kts | 82° |
| 2026-04-15 21:09 | 18.04331 | -63.09019 | 816 ft | 203 kts | 90° |
| 2026-04-15 21:09 | 18.03851 | -63.07573 | 1458 ft | 220 kts | 128° |
| 2026-04-15 21:09 | 18.02653 | -63.06634 | 2373 ft | 226 kts | 158° |
| 2026-04-15 21:09 | 18.01065 | -63.06383 | 2969 ft | 245 kts | 185° |
| 2026-04-15 21:10 | 17.99500 | -63.07041 | 3523 ft | 259 kts | 217° |
| 2026-04-15 21:10 | 17.98387 | -63.08530 | 4230 ft | 271 kts | 246° |
| 2026-04-15 21:10 | 17.97941 | -63.10466 | 5028 ft | 277 kts | 261° |
| 2026-04-15 21:10 | 17.97768 | -63.12488 | 5941 ft | 277 kts | 264° |
| 2026-04-15 21:11 | 17.97655 | -63.14508 | 6824 ft | 278 kts | 264° |
| 2026-04-15 21:11 | 17.97540 | -63.16542 | 7627 ft | 280 kts | 264° |
| 2026-04-15 21:11 | 17.97410 | -63.18593 | 8440 ft | 282 kts | 264° |
| 2026-04-15 21:11 | 17.97265 | -63.20661 | 9265 ft | 284 kts | 264° |
| 2026-04-15 21:12 | 17.97108 | -63.22737 | 10080 ft | 286 kts | 263° |
| 2026-04-15 21:12 | 17.96942 | -63.24845 | 10608 ft | 299 kts | 263° |
| 2026-04-15 21:12 | 17.96757 | -63.27114 | 10788 ft | 324 kts | 263° |
| 2026-04-15 21:12 | 17.96554 | -63.29566 | 10979 ft | 348 kts | 263° |
| 2026-04-15 21:13 | 17.96341 | -63.32136 | 11305 ft | 366 kts | 264° |
| 2026-04-15 21:13 | 17.96117 | -63.34825 | 11940 ft | 374 kts | 264° |
| 2026-04-15 21:13 | 17.95887 | -63.37566 | 12672 ft | 378 kts | 264° |
| 2026-04-15 21:13 | 17.95654 | -63.40329 | 13507 ft | 381 kts | 264° |
| 2026-04-15 21:14 | 17.95417 | -63.43110 | 14256 ft | 383 kts | 263° |
| 2026-04-15 21:14 | 17.95178 | -63.45910 | 14911 ft | 388 kts | 263° |
| 2026-04-15 21:14 | 17.94936 | -63.48748 | 15559 ft | 392 kts | 263° |
| 2026-04-15 21:14 | 17.94692 | -63.51617 | 16221 ft | 396 kts | 263° |
| 2026-04-15 21:15 | 17.94445 | -63.54509 | 16884 ft | 399 kts | 263° |
| 2026-04-15 21:15 | 17.94196 | -63.57427 | 17519 ft | 403 kts | 263° |
| 2026-04-15 21:15 | 17.93944 | -63.60368 | 18172 ft | 407 kts | 263° |
| 2026-04-15 21:15 | 17.93689 | -63.63342 | 18739 ft | 410 kts | 263° |
| 2026-04-15 21:16 | 17.93415 | -63.66322 | 19189 ft | 408 kts | 262° |
| 2026-04-15 21:16 | 17.92965 | -63.69279 | 19379 ft | 414 kts | 257° |
| 2026-04-15 21:16 | 17.92310 | -63.72240 | 19818 ft | 419 kts | 255° |
| 2026-04-15 21:16 | 17.91584 | -63.75213 | 20415 ft | 420 kts | 255° |
| 2026-04-15 21:17 | 17.90851 | -63.78187 | 21010 ft | 421 kts | 255° |
| 2026-04-15 21:17 | 17.90130 | -63.81186 | 21518 ft | 425 kts | 256° |
| 2026-04-15 21:17 | 17.89424 | -63.84210 | 22021 ft | 429 kts | 257° |
| 2026-04-15 21:17 | 17.88736 | -63.87223 | 22494 ft | 432 kts | 257° |
| 2026-04-15 21:18 | 17.88042 | -63.90303 | 22999 ft | 435 kts | 257° |
| 2026-04-15 21:18 | 17.87345 | -63.93403 | 23487 ft | 437 kts | 257° |
| 2026-04-15 21:18 | 17.86643 | -63.96522 | 23908 ft | 439 kts | 257° |
| 2026-04-15 21:18 | 17.85937 | -63.99653 | 24341 ft | 441 kts | 257° |
| 2026-04-15 21:19 | 17.85227 | -64.02787 | 24783 ft | 442 kts | 257° |
| 2026-04-15 21:19 | 17.84510 | -64.05943 | 25206 ft | 443 kts | 257° |
| 2026-04-15 21:19 | 17.83793 | -64.09092 | 25619 ft | 445 kts | 257° |
| 2026-04-15 21:19 | 17.83079 | -64.12224 | 26019 ft | 447 kts | 257° |
| 2026-04-15 21:20 | 17.82356 | -64.15399 | 26422 ft | 449 kts | 257° |
| 2026-04-15 21:20 | 17.81623 | -64.18609 | 26835 ft | 451 kts | 257° |
| 2026-04-15 21:20 | 17.80832 | -64.21786 | 27206 ft | 449 kts | 255° |
| 2026-04-15 21:20 | 17.79857 | -64.24898 | 27276 ft | 449 kts | 250° |
| 2026-04-15 21:21 | 17.78544 | -64.27874 | 27287 ft | 452 kts | 242° |
| 2026-04-15 21:21 | 17.76763 | -64.30632 | 27447 ft | 461 kts | 235° |
| 2026-04-15 21:21 | 17.74807 | -64.33281 | 27674 ft | 457 kts | 234° |
| 2026-04-15 21:21 | 17.72897 | -64.35940 | 27691 ft | 455 kts | 237° |
| 2026-04-15 21:22 | 17.71160 | -64.38709 | 27707 ft | 453 kts | 241° |
| 2026-04-15 21:22 | 17.69599 | -64.41547 | 27775 ft | 459 kts | 243° |
| 2026-04-15 21:22 | 17.68052 | -64.44493 | 28037 ft | 462 kts | 243° |
| 2026-04-15 21:22 | 17.66487 | -64.47442 | 28447 ft | 463 kts | 242° |
| 2026-04-15 21:23 | 17.64879 | -64.50374 | 28868 ft | 464 kts | 242° |
| 2026-04-15 21:23 | 17.63225 | -64.53287 | 29224 ft | 466 kts | 241° |
| 2026-04-15 21:23 | 17.61531 | -64.56191 | 29530 ft | 468 kts | 240° |
| 2026-04-15 21:23 | 17.59805 | -64.59101 | 29810 ft | 471 kts | 240° |
| 2026-04-15 21:24 | 17.58065 | -64.62009 | 30171 ft | 470 kts | 240° |
| 2026-04-15 21:24 | 17.56328 | -64.64904 | 30678 ft | 465 kts | 240° |
| 2026-04-15 21:24 | 17.54615 | -64.67762 | 31261 ft | 459 kts | 240° |
| 2026-04-15 21:24 | 17.52931 | -64.70575 | 31794 ft | 454 kts | 240° |
| 2026-04-15 21:25 | 17.51263 | -64.73371 | 32258 ft | 451 kts | 240° |
| 2026-04-15 21:25 | 17.49601 | -64.76162 | 32669 ft | 449 kts | 240° |
| 2026-04-15 21:25 | 17.47977 | -64.78892 | 33083 ft | 446 kts | 240° |
| 2026-04-15 21:25 | 17.46340 | -64.81645 | 33508 ft | 443 kts | 240° |
| 2026-04-15 21:26 | 17.44715 | -64.84375 | 33918 ft | 440 kts | 240° |
| 2026-04-15 21:26 | 17.41462 | -64.89839 | 33964 ft | 442 kts | 240° |
| 2026-04-15 21:27 | 17.38207 | -64.95297 | 33955 ft | 440 kts | 240° |
| 2026-04-15 21:27 | 17.34966 | -65.00726 | 33959 ft | 439 kts | 240° |
| 2026-04-15 21:28 | 17.31731 | -65.06141 | 33957 ft | 439 kts | 240° |
| 2026-04-15 21:28 | 17.28490 | -65.11562 | 33956 ft | 439 kts | 240° |
| 2026-04-15 21:29 | 17.25269 | -65.16944 | 33960 ft | 440 kts | 240° |
| 2026-04-15 21:29 | 17.22018 | -65.22373 | 33955 ft | 440 kts | 240° |
| 2026-04-15 21:30 | 17.18767 | -65.27797 | 33955 ft | 440 kts | 240° |
| 2026-04-15 21:30 | 17.15506 | -65.33234 | 33951 ft | 441 kts | 240° |
| 2026-04-15 21:31 | 17.10632 | -65.41350 | 33966 ft | 441 kts | 240° |
| 2026-04-15 21:32 | 17.05730 | -65.49505 | 33964 ft | 441 kts | 240° |
| 2026-04-15 21:32 | 17.02459 | -65.54941 | 33966 ft | 441 kts | 240° |
| 2026-04-15 21:33 | 16.99193 | -65.60364 | 33963 ft | 441 kts | 240° |
| 2026-04-15 21:33 | 16.95922 | -65.65791 | 33959 ft | 441 kts | 240° |
| 2026-04-15 21:34 | 16.92675 | -65.71175 | 33940 ft | 440 kts | 240° |
| 2026-04-15 21:34 | 16.89404 | -65.76593 | 33949 ft | 440 kts | 240° |
| 2026-04-15 21:35 | 16.86148 | -65.81983 | 33956 ft | 440 kts | 240° |
| 2026-04-15 21:35 | 16.82881 | -65.87387 | 33947 ft | 440 kts | 240° |
| 2026-04-15 21:36 | 16.79615 | -65.92785 | 33948 ft | 440 kts | 240° |
| 2026-04-15 21:36 | 16.76342 | -65.98191 | 33948 ft | 440 kts | 240° |
| 2026-04-15 21:37 | 16.73069 | -66.03590 | 33941 ft | 440 kts | 240° |
| 2026-04-15 21:37 | 16.69811 | -66.08963 | 33946 ft | 440 kts | 240° |
| 2026-04-15 21:38 | 16.66532 | -66.14365 | 33944 ft | 440 kts | 240° |
| 2026-04-15 21:38 | 16.63256 | -66.19760 | 33941 ft | 440 kts | 240° |
| 2026-04-15 21:39 | 16.59981 | -66.25147 | 33945 ft | 440 kts | 240° |
| 2026-04-15 21:39 | 16.56702 | -66.30537 | 33946 ft | 440 kts | 240° |
| 2026-04-15 21:40 | 16.53419 | -66.35930 | 33945 ft | 440 kts | 240° |
| 2026-04-15 21:40 | 16.50158 | -66.41282 | 33942 ft | 440 kts | 240° |
| 2026-04-15 21:41 | 16.46875 | -66.46667 | 33945 ft | 440 kts | 240° |
| 2026-04-15 21:41 | 16.43581 | -66.52066 | 33945 ft | 440 kts | 240° |
| 2026-04-15 21:42 | 16.40845 | -66.56547 | 33942 ft | 440 kts | 240° |
| 2026-04-15 21:42 | 16.37553 | -66.61934 | 33944 ft | 441 kts | 240° |
| 2026-04-15 21:43 | 16.34259 | -66.67321 | 33939 ft | 441 kts | 240° |
| 2026-04-15 21:43 | 16.30963 | -66.72707 | 33939 ft | 441 kts | 240° |
| 2026-04-15 21:44 | 16.27690 | -66.78052 | 33937 ft | 441 kts | 240° |
| 2026-04-15 21:44 | 16.24393 | -66.83432 | 33937 ft | 441 kts | 240° |
| 2026-04-15 21:45 | 16.21093 | -66.88814 | 33939 ft | 441 kts | 240° |
| 2026-04-15 21:45 | 16.17789 | -66.94196 | 33936 ft | 441 kts | 240° |
| 2026-04-15 21:46 | 16.14506 | -66.99542 | 33935 ft | 441 kts | 240° |
| 2026-04-15 21:46 | 16.11200 | -67.04920 | 33937 ft | 441 kts | 240° |
| 2026-04-15 21:47 | 16.07893 | -67.10296 | 33929 ft | 441 kts | 240° |
| 2026-04-15 21:47 | 16.04583 | -67.15674 | 33936 ft | 441 kts | 240° |
| 2026-04-15 21:48 | 16.01277 | -67.21042 | 33938 ft | 441 kts | 240° |
| 2026-04-15 21:48 | 15.97960 | -67.26421 | 33933 ft | 441 kts | 240° |
| 2026-04-15 21:49 | 15.94644 | -67.31798 | 33935 ft | 442 kts | 240° |
| 2026-04-15 21:49 | 15.91324 | -67.37175 | 33933 ft | 442 kts | 240° |
| 2026-04-15 21:50 | 15.88007 | -67.42545 | 33931 ft | 442 kts | 240° |
| 2026-04-15 21:50 | 15.84702 | -67.47893 | 33927 ft | 442 kts | 240° |
| 2026-04-15 21:51 | 15.81322 | -67.53231 | 33926 ft | 443 kts | 238° |
| 2026-04-15 21:51 | 15.77708 | -67.58430 | 33929 ft | 444 kts | 237° |
| 2026-04-15 21:52 | 15.74048 | -67.63589 | 33929 ft | 444 kts | 237° |
| 2026-04-15 21:52 | 15.70414 | -67.68779 | 33927 ft | 444 kts | 237° |
| 2026-04-15 21:53 | 15.66810 | -67.73982 | 33922 ft | 444 kts | 237° |
| 2026-04-15 21:53 | 15.63231 | -67.79160 | 33923 ft | 444 kts | 237° |
| 2026-04-15 21:54 | 15.59627 | -67.84367 | 33927 ft | 444 kts | 237° |
| 2026-04-15 21:54 | 15.56013 | -67.89580 | 33926 ft | 444 kts | 237° |
| 2026-04-15 21:55 | 15.52398 | -67.94790 | 33924 ft | 445 kts | 237° |
| 2026-04-15 21:55 | 15.48809 | -67.99958 | 33923 ft | 445 kts | 237° |
| 2026-04-15 21:56 | 15.45188 | -68.05170 | 33922 ft | 445 kts | 237° |
| 2026-04-15 21:56 | 15.41561 | -68.10387 | 33919 ft | 445 kts | 237° |
| 2026-04-15 21:57 | 15.37939 | -68.15594 | 33927 ft | 445 kts | 237° |
| 2026-04-15 21:57 | 15.34328 | -68.20780 | 33923 ft | 445 kts | 237° |
| 2026-04-15 21:58 | 15.30702 | -68.25986 | 33915 ft | 446 kts | 237° |
| 2026-04-15 21:58 | 15.27071 | -68.31195 | 33922 ft | 446 kts | 237° |
| 2026-04-15 21:59 | 15.23457 | -68.36377 | 33929 ft | 446 kts | 237° |
| 2026-04-15 21:59 | 15.19823 | -68.41595 | 33922 ft | 446 kts | 237° |
| 2026-04-15 22:00 | 15.16245 | -68.46840 | 33903 ft | 446 kts | 237° |
| 2026-04-15 22:00 | 15.12677 | -68.52109 | 33905 ft | 446 kts | 237° |
| 2026-04-15 22:01 | 15.09103 | -68.57369 | 33906 ft | 446 kts | 237° |
| 2026-04-15 22:01 | 15.05541 | -68.62595 | 33915 ft | 446 kts | 237° |
| 2026-04-15 22:02 | 15.01953 | -68.67853 | 33914 ft | 447 kts | 237° |
| 2026-04-15 22:02 | 14.98369 | -68.73103 | 33915 ft | 447 kts | 237° |
| 2026-04-15 22:03 | 14.94798 | -68.78331 | 33910 ft | 447 kts | 237° |
| 2026-04-15 22:03 | 14.91199 | -68.83599 | 33912 ft | 447 kts | 237° |
| 2026-04-15 22:04 | 14.87593 | -68.88855 | 33912 ft | 448 kts | 237° |
| 2026-04-15 22:04 | 14.83998 | -68.94065 | 33906 ft | 448 kts | 237° |
| 2026-04-15 22:05 | 14.80413 | -68.99336 | 33911 ft | 448 kts | 237° |
| 2026-04-15 22:05 | 14.76828 | -69.04612 | 33909 ft | 448 kts | 237° |
| 2026-04-15 22:06 | 14.73222 | -69.09877 | 33909 ft | 449 kts | 237° |
| 2026-04-15 22:06 | 14.69607 | -69.15145 | 33905 ft | 449 kts | 237° |
| 2026-04-15 22:07 | 14.65990 | -69.20424 | 33905 ft | 450 kts | 237° |
| 2026-04-15 22:07 | 14.62371 | -69.25702 | 33905 ft | 450 kts | 237° |
| 2026-04-15 22:08 | 14.58751 | -69.30968 | 33904 ft | 450 kts | 237° |
| 2026-04-15 22:08 | 14.55117 | -69.36239 | 33902 ft | 450 kts | 237° |
| 2026-04-15 22:09 | 14.51511 | -69.41469 | 33904 ft | 450 kts | 237° |
| 2026-04-15 22:09 | 14.47869 | -69.46752 | 33903 ft | 450 kts | 237° |
| 2026-04-15 22:10 | 14.44236 | -69.52019 | 33901 ft | 451 kts | 237° |
| 2026-04-15 22:10 | 14.40599 | -69.57288 | 33902 ft | 451 kts | 237° |
| 2026-04-15 22:11 | 14.36980 | -69.62527 | 33900 ft | 451 kts | 237° |
| 2026-04-15 22:11 | 14.33334 | -69.67802 | 33901 ft | 451 kts | 237° |
| 2026-04-15 22:12 | 14.29684 | -69.73081 | 33896 ft | 451 kts | 237° |
| 2026-04-15 22:12 | 14.26034 | -69.78356 | 33896 ft | 452 kts | 237° |
| 2026-04-15 22:13 | 14.22380 | -69.83633 | 33900 ft | 452 kts | 237° |
| 2026-04-15 22:13 | 14.18729 | -69.88904 | 33900 ft | 452 kts | 237° |
| 2026-04-15 22:14 | 14.15084 | -69.94182 | 33893 ft | 452 kts | 237° |
| 2026-04-15 22:14 | 14.11489 | -69.99456 | 33898 ft | 452 kts | 237° |
| 2026-04-15 22:15 | 14.07829 | -70.04754 | 33895 ft | 452 kts | 237° |
| 2026-04-15 22:15 | 14.04158 | -70.10024 | 33895 ft | 452 kts | 237° |
| 2026-04-15 22:16 | 14.00488 | -70.15307 | 33893 ft | 453 kts | 237° |
| 2026-04-15 22:16 | 13.96843 | -70.20540 | 33892 ft | 453 kts | 237° |
| 2026-04-15 22:17 | 13.93158 | -70.25824 | 33892 ft | 453 kts | 237° |
| 2026-04-15 22:17 | 13.89482 | -70.31094 | 33893 ft | 453 kts | 237° |
| 2026-04-15 22:18 | 13.85806 | -70.36364 | 33891 ft | 453 kts | 237° |
| 2026-04-15 22:18 | 13.82138 | -70.41619 | 33894 ft | 454 kts | 237° |
| 2026-04-15 22:19 | 13.78460 | -70.46907 | 33888 ft | 454 kts | 237° |
| 2026-04-15 22:19 | 13.74789 | -70.52193 | 33890 ft | 454 kts | 237° |
| 2026-04-15 22:20 | 13.71112 | -70.57484 | 33894 ft | 454 kts | 237° |
| 2026-04-15 22:20 | 13.67430 | -70.62776 | 33887 ft | 455 kts | 237° |
| 2026-04-15 22:21 | 13.63746 | -70.68067 | 33888 ft | 455 kts | 237° |
| 2026-04-15 22:21 | 13.60075 | -70.73335 | 33893 ft | 455 kts | 237° |
| 2026-04-15 22:22 | 13.56381 | -70.78634 | 33888 ft | 455 kts | 237° |
| 2026-04-15 22:22 | 13.52711 | -70.83895 | 33889 ft | 455 kts | 237° |
| 2026-04-15 22:23 | 13.49017 | -70.89188 | 33885 ft | 456 kts | 237° |
| 2026-04-15 22:23 | 13.45310 | -70.94496 | 33888 ft | 456 kts | 237° |
| 2026-04-15 22:24 | 13.41630 | -70.99764 | 33884 ft | 456 kts | 237° |
| 2026-04-15 22:24 | 13.37932 | -71.05051 | 33886 ft | 456 kts | 237° |
| 2026-04-15 22:25 | 13.34207 | -71.10347 | 33888 ft | 456 kts | 237° |
| 2026-04-15 22:25 | 13.30484 | -71.15634 | 33878 ft | 457 kts | 237° |
| 2026-04-15 22:26 | 13.26782 | -71.20886 | 33883 ft | 457 kts | 237° |
| 2026-04-15 22:26 | 13.23053 | -71.26179 | 33884 ft | 457 kts | 237° |
| 2026-04-15 22:27 | 13.19315 | -71.31481 | 33883 ft | 457 kts | 236° |
| 2026-04-15 22:27 | 13.15585 | -71.36768 | 33880 ft | 458 kts | 236° |
| 2026-04-15 22:28 | 13.11846 | -71.42066 | 33879 ft | 458 kts | 236° |
| 2026-04-15 22:28 | 13.08142 | -71.47329 | 33877 ft | 458 kts | 237° |
| 2026-04-15 22:29 | 13.04422 | -71.52641 | 33878 ft | 458 kts | 237° |
| 2026-04-15 22:29 | 13.01326 | -71.57062 | 33881 ft | 458 kts | 236° |
| 2026-04-15 22:30 | 12.97607 | -71.62366 | 33872 ft | 458 kts | 236° |
| 2026-04-15 22:30 | 12.93879 | -71.67673 | 33877 ft | 458 kts | 236° |
| 2026-04-15 22:31 | 12.90176 | -71.72943 | 33874 ft | 458 kts | 236° |
| 2026-04-15 22:31 | 12.86447 | -71.78248 | 33876 ft | 458 kts | 236° |
| 2026-04-15 22:32 | 12.82721 | -71.83547 | 33872 ft | 458 kts | 236° |
| 2026-04-15 22:32 | 12.78997 | -71.88846 | 33875 ft | 458 kts | 236° |
| 2026-04-15 22:33 | 12.75298 | -71.94121 | 33873 ft | 458 kts | 236° |
| 2026-04-15 22:33 | 12.71585 | -71.99421 | 33870 ft | 458 kts | 236° |
| 2026-04-15 22:34 | 12.67870 | -72.04716 | 33874 ft | 458 kts | 236° |
| 2026-04-15 22:34 | 12.64149 | -72.10016 | 33870 ft | 458 kts | 236° |
| 2026-04-15 22:35 | 12.60425 | -72.15317 | 33869 ft | 458 kts | 236° |
| 2026-04-15 22:35 | 12.56698 | -72.20619 | 33871 ft | 458 kts | 236° |
| 2026-04-15 22:36 | 12.52968 | -72.25924 | 33872 ft | 459 kts | 236° |
| 2026-04-15 22:36 | 12.49257 | -72.31197 | 33865 ft | 459 kts | 236° |
| 2026-04-15 22:37 | 12.45527 | -72.36496 | 33859 ft | 459 kts | 236° |
| 2026-04-15 22:37 | 12.41787 | -72.41805 | 33868 ft | 460 kts | 236° |
| 2026-04-15 22:38 | 12.38049 | -72.47107 | 33874 ft | 460 kts | 236° |
| 2026-04-15 22:38 | 12.34300 | -72.52423 | 33866 ft | 460 kts | 236° |
| 2026-04-15 22:39 | 12.30570 | -72.57709 | 33868 ft | 460 kts | 236° |
| 2026-04-15 22:39 | 12.26823 | -72.63016 | 33868 ft | 460 kts | 236° |
| 2026-04-15 22:40 | 12.23069 | -72.68330 | 33863 ft | 461 kts | 236° |
| 2026-04-15 22:40 | 12.19311 | -72.73645 | 33861 ft | 461 kts | 236° |
| 2026-04-15 22:41 | 12.13670 | -72.81620 | 33863 ft | 462 kts | 236° |
| 2026-04-15 22:41 | 12.09906 | -72.86939 | 33853 ft | 462 kts | 236° |
| 2026-04-15 22:42 | 12.06160 | -72.92227 | 33861 ft | 462 kts | 236° |
| 2026-04-15 22:42 | 12.02385 | -72.97555 | 33861 ft | 463 kts | 235° |
| 2026-04-15 22:43 | 11.98600 | -73.02895 | 33853 ft | 463 kts | 235° |
| 2026-04-15 22:43 | 11.94841 | -73.08194 | 33853 ft | 463 kts | 235° |
| 2026-04-15 22:44 | 11.91057 | -73.13525 | 33859 ft | 463 kts | 235° |
| 2026-04-15 22:44 | 11.87269 | -73.18859 | 33852 ft | 464 kts | 235° |
| 2026-04-15 22:45 | 11.83470 | -73.24205 | 33855 ft | 464 kts | 235° |
| 2026-04-15 22:45 | 11.79681 | -73.29536 | 33856 ft | 464 kts | 235° |
| 2026-04-15 22:46 | 11.75902 | -73.34848 | 33862 ft | 465 kts | 235° |
| 2026-04-15 22:46 | 11.72103 | -73.40186 | 33854 ft | 465 kts | 235° |
| 2026-04-15 22:47 | 11.68299 | -73.45529 | 33863 ft | 465 kts | 235° |
| 2026-04-15 22:47 | 11.64492 | -73.50873 | 33866 ft | 465 kts | 235° |
| 2026-04-15 22:48 | 11.60678 | -73.56223 | 33864 ft | 466 kts | 235° |
| 2026-04-15 22:48 | 11.56862 | -73.61573 | 33868 ft | 466 kts | 235° |
| 2026-04-15 22:49 | 11.53051 | -73.66914 | 33868 ft | 466 kts | 235° |
| 2026-04-15 22:49 | 11.49258 | -73.72226 | 33872 ft | 466 kts | 235° |
| 2026-04-15 22:50 | 11.45433 | -73.77582 | 33876 ft | 467 kts | 235° |
| 2026-04-15 22:50 | 11.41606 | -73.82937 | 33877 ft | 467 kts | 235° |
| 2026-04-15 22:51 | 11.37770 | -73.88301 | 33880 ft | 468 kts | 235° |
| 2026-04-15 22:51 | 11.33934 | -73.93663 | 33881 ft | 468 kts | 235° |
| 2026-04-15 22:52 | 11.30120 | -73.98991 | 33871 ft | 469 kts | 235° |
| 2026-04-15 22:52 | 11.26272 | -74.04365 | 33841 ft | 469 kts | 235° |
| 2026-04-15 22:53 | 11.22419 | -74.09741 | 33822 ft | 470 kts | 235° |
| 2026-04-15 22:53 | 11.18564 | -74.15118 | 33806 ft | 470 kts | 235° |
| 2026-04-15 22:54 | 11.14709 | -74.20493 | 33804 ft | 470 kts | 235° |
| 2026-04-15 22:54 | 11.10875 | -74.25835 | 33797 ft | 470 kts | 235° |
| 2026-04-15 22:55 | 11.07010 | -74.31218 | 33803 ft | 470 kts | 235° |
| 2026-04-15 22:55 | 11.03155 | -74.36584 | 33809 ft | 469 kts | 235° |
| 2026-04-15 22:56 | 10.99317 | -74.41924 | 33816 ft | 470 kts | 235° |
| 2026-04-15 22:56 | 10.95458 | -74.47290 | 33819 ft | 470 kts | 235° |
| 2026-04-15 22:57 | 10.91599 | -74.52653 | 33827 ft | 470 kts | 235° |
| 2026-04-15 22:57 | 10.87735 | -74.58021 | 33830 ft | 470 kts | 235° |
| 2026-04-15 22:58 | 10.83864 | -74.63395 | 33829 ft | 471 kts | 235° |
| 2026-04-15 22:58 | 10.80012 | -74.68742 | 33829 ft | 471 kts | 235° |
| 2026-04-15 22:59 | 10.76135 | -74.74121 | 33831 ft | 471 kts | 235° |
| 2026-04-15 22:59 | 10.72253 | -74.79503 | 33829 ft | 472 kts | 235° |
| 2026-04-15 23:00 | 10.68366 | -74.84890 | 33832 ft | 472 kts | 235° |
| 2026-04-15 23:00 | 10.64476 | -74.90277 | 33833 ft | 472 kts | 235° |
| 2026-04-15 23:01 | 10.60597 | -74.95648 | 33834 ft | 472 kts | 235° |
| 2026-04-15 23:01 | 10.56721 | -75.01011 | 33831 ft | 473 kts | 235° |
| 2026-04-15 23:02 | 10.52820 | -75.06407 | 33827 ft | 473 kts | 235° |
| 2026-04-15 23:02 | 10.48924 | -75.11793 | 33823 ft | 473 kts | 234° |
| 2026-04-15 23:03 | 10.45022 | -75.17184 | 33829 ft | 473 kts | 235° |
| 2026-04-15 23:03 | 10.41118 | -75.22575 | 33820 ft | 474 kts | 234° |
| 2026-04-15 23:04 | 10.37227 | -75.27947 | 33811 ft | 474 kts | 234° |
| 2026-04-15 23:04 | 10.33313 | -75.33348 | 33803 ft | 475 kts | 234° |
| 2026-04-15 23:05 | 10.29398 | -75.38748 | 33804 ft | 474 kts | 234° |
| 2026-04-15 23:05 | 10.25482 | -75.44148 | 33846 ft | 474 kts | 234° |
| 2026-04-15 23:06 | 10.21700 | -75.49594 | 33825 ft | 474 kts | 238° |
| 2026-04-15 23:06 | 10.18777 | -75.55471 | 33825 ft | 464 kts | 252° |
| 2026-04-15 23:07 | 10.17199 | -75.61885 | 33818 ft | 468 kts | 256° |
| 2026-04-15 23:07 | 10.15405 | -75.68188 | 33851 ft | 465 kts | 250° |
| 2026-04-15 23:08 | 10.13104 | -75.74400 | 33853 ft | 474 kts | 249° |
| 2026-04-15 23:08 | 10.10821 | -75.80676 | 33850 ft | 477 kts | 250° |
| 2026-04-15 23:09 | 10.08649 | -75.87054 | 33836 ft | 477 kts | 251° |
| 2026-04-15 23:09 | 10.06552 | -75.93407 | 33839 ft | 477 kts | 251° |
| 2026-04-15 23:10 | 10.04448 | -75.99781 | 33838 ft | 476 kts | 251° |
| 2026-04-15 23:10 | 10.02332 | -76.06150 | 33854 ft | 475 kts | 251° |
| 2026-04-15 23:11 | 10.00214 | -76.12498 | 33841 ft | 474 kts | 251° |
| 2026-04-15 23:11 | 9.98099 | -76.18827 | 33845 ft | 474 kts | 251° |
| 2026-04-15 23:12 | 9.95994 | -76.25126 | 33843 ft | 473 kts | 251° |
| 2026-04-15 23:12 | 9.93877 | -76.31462 | 33849 ft | 473 kts | 251° |
| 2026-04-15 23:13 | 9.91763 | -76.37780 | 33862 ft | 473 kts | 251° |
| 2026-04-15 23:13 | 9.89642 | -76.44117 | 33862 ft | 474 kts | 251° |
| 2026-04-15 23:14 | 9.87520 | -76.50453 | 33857 ft | 474 kts | 251° |
| 2026-04-15 23:14 | 9.85411 | -76.56746 | 33859 ft | 474 kts | 251° |
| 2026-04-15 23:15 | 9.83286 | -76.63081 | 33851 ft | 474 kts | 251° |
| 2026-04-15 23:15 | 9.81160 | -76.69415 | 33852 ft | 474 kts | 250° |
| 2026-04-15 23:16 | 9.79030 | -76.75759 | 33854 ft | 474 kts | 250° |
| 2026-04-15 23:16 | 9.76917 | -76.82044 | 33870 ft | 474 kts | 251° |
| 2026-04-15 23:17 | 9.74789 | -76.88372 | 33874 ft | 474 kts | 250° |
| 2026-04-15 23:17 | 9.72660 | -76.94696 | 33871 ft | 474 kts | 250° |
| 2026-04-15 23:18 | 9.70534 | -77.01011 | 33864 ft | 473 kts | 250° |
| 2026-04-15 23:18 | 9.68762 | -77.06271 | 33871 ft | 473 kts | 250° |
| 2026-04-15 23:19 | 9.66631 | -77.12591 | 33872 ft | 473 kts | 250° |
| 2026-04-15 23:19 | 9.64500 | -77.18906 | 33874 ft | 473 kts | 250° |
| 2026-04-15 23:20 | 9.62368 | -77.25222 | 33875 ft | 473 kts | 250° |
| 2026-04-15 23:20 | 9.60234 | -77.31540 | 33866 ft | 473 kts | 250° |
| 2026-04-15 23:21 | 9.58102 | -77.37847 | 33864 ft | 474 kts | 250° |
| 2026-04-15 23:21 | 9.55942 | -77.44156 | 33867 ft | 473 kts | 249° |
| 2026-04-15 23:22 | 9.53605 | -77.50348 | 33863 ft | 473 kts | 248° |
| 2026-04-15 23:22 | 9.51183 | -77.56565 | 33882 ft | 474 kts | 248° |
| 2026-04-15 23:23 | 9.48785 | -77.62795 | 33871 ft | 474 kts | 248° |
| 2026-04-15 23:23 | 9.46415 | -77.69025 | 33876 ft | 475 kts | 249° |
| 2026-04-15 23:24 | 9.44045 | -77.75271 | 33874 ft | 475 kts | 249° |
| 2026-04-15 23:24 | 9.41680 | -77.81494 | 33878 ft | 475 kts | 248° |
| 2026-04-15 23:25 | 9.39303 | -77.87737 | 33887 ft | 475 kts | 248° |
| 2026-04-15 23:25 | 9.36925 | -77.93981 | 33882 ft | 475 kts | 248° |
| 2026-04-15 23:26 | 9.34544 | -78.00226 | 33878 ft | 475 kts | 249° |
| 2026-04-15 23:26 | 9.32162 | -78.06473 | 33884 ft | 475 kts | 249° |
| 2026-04-15 23:27 | 9.29796 | -78.12674 | 33884 ft | 475 kts | 248° |
| 2026-04-15 23:27 | 9.27408 | -78.18928 | 33897 ft | 475 kts | 248° |
| 2026-04-15 23:28 | 9.25093 | -78.25210 | 33882 ft | 475 kts | 250° |
| 2026-04-15 23:28 | 9.22898 | -78.31521 | 33906 ft | 475 kts | 250° |
| 2026-04-15 23:29 | 9.20723 | -78.37804 | 33901 ft | 475 kts | 250° |
| 2026-04-15 23:29 | 9.18512 | -78.44119 | 33886 ft | 475 kts | 250° |
| 2026-04-15 23:30 | 9.16285 | -78.50434 | 33879 ft | 475 kts | 250° |
| 2026-04-15 23:30 | 9.14060 | -78.56733 | 33894 ft | 475 kts | 250° |
| 2026-04-15 23:31 | 9.11834 | -78.63035 | 33877 ft | 475 kts | 250° |
| 2026-04-15 23:31 | 9.09628 | -78.69282 | 33915 ft | 474 kts | 251° |
| 2026-04-15 23:32 | 9.07426 | -78.75507 | 33872 ft | 465 kts | 251° |
| 2026-04-15 23:32 | 9.05245 | -78.81674 | 33871 ft | 465 kts | 251° |
| 2026-04-15 23:33 | 9.03077 | -78.87808 | 33867 ft | 466 kts | 251° |
| 2026-04-15 23:33 | 9.00892 | -78.93984 | 33860 ft | 467 kts | 251° |
| 2026-04-15 23:34 | 8.98700 | -79.00174 | 33856 ft | 468 kts | 251° |
| 2026-04-15 23:36 | 8.91006 | -79.21868 | 33851 ft | 469 kts | 251° |
| 2026-04-15 23:36 | 8.88797 | -79.28088 | 33849 ft | 469 kts | 251° |
| 2026-04-15 23:37 | 8.86598 | -79.34277 | 33849 ft | 469 kts | 251° |
| 2026-04-15 23:37 | 8.84389 | -79.40490 | 33834 ft | 469 kts | 251° |
| 2026-04-15 23:38 | 8.82182 | -79.46699 | 33852 ft | 469 kts | 251° |
| 2026-04-15 23:38 | 8.80075 | -79.52943 | 33853 ft | 466 kts | 256° |
| 2026-04-15 23:38 | 8.79524 | -79.56113 | 33847 ft | 462 kts | 269° |
| 2026-04-15 23:39 | 8.79844 | -79.59343 | 33861 ft | 465 kts | 282° |
| 2026-04-15 23:39 | 8.82019 | -79.65495 | 33852 ft | 461 kts | 290° |
| 2026-04-15 23:40 | 8.84274 | -79.71526 | 33861 ft | 460 kts | 286° |
| 2026-04-15 23:40 | 8.86195 | -79.77769 | 33867 ft | 470 kts | 285° |
| 2026-04-15 23:41 | 8.88179 | -79.84115 | 33864 ft | 474 kts | 286° |
| 2026-04-15 23:41 | 8.90259 | -79.90425 | 33865 ft | 475 kts | 287° |
| 2026-04-15 23:42 | 8.92399 | -79.96774 | 33870 ft | 475 kts | 287° |
| 2026-04-15 23:42 | 8.94528 | -80.03091 | 33871 ft | 474 kts | 287° |
| 2026-04-15 23:43 | 8.96648 | -80.09416 | 33874 ft | 473 kts | 287° |
| 2026-04-15 23:43 | 8.98754 | -80.15718 | 33878 ft | 472 kts | 287° |
| 2026-04-15 23:44 | 9.00840 | -80.21966 | 33883 ft | 471 kts | 287° |
| 2026-04-15 23:44 | 9.02937 | -80.28248 | 33888 ft | 471 kts | 287° |
| 2026-04-15 23:45 | 9.05036 | -80.34534 | 33890 ft | 471 kts | 287° |
| 2026-04-15 23:45 | 9.07117 | -80.40775 | 33899 ft | 471 kts | 287° |
| 2026-04-15 23:46 | 9.09213 | -80.47065 | 33899 ft | 471 kts | 287° |
| 2026-04-15 23:46 | 9.11306 | -80.53350 | 33901 ft | 472 kts | 287° |
| 2026-04-15 23:47 | 9.13404 | -80.59653 | 33906 ft | 472 kts | 287° |
| 2026-04-15 23:47 | 9.15500 | -80.65953 | 33904 ft | 472 kts | 287° |
| 2026-04-15 23:48 | 9.17587 | -80.72232 | 33910 ft | 473 kts | 287° |
| 2026-04-15 23:48 | 9.19683 | -80.78543 | 33909 ft | 473 kts | 287° |
| 2026-04-15 23:49 | 9.21780 | -80.84859 | 33913 ft | 473 kts | 287° |
| 2026-04-15 23:49 | 9.23878 | -80.91183 | 33911 ft | 473 kts | 287° |
| 2026-04-15 23:50 | 9.25957 | -80.97454 | 33913 ft | 473 kts | 287° |
| 2026-04-15 23:50 | 9.28075 | -81.03750 | 33915 ft | 473 kts | 288° |
| 2026-04-15 23:51 | 9.31400 | -81.13151 | 33915 ft | 472 kts | 288° |
| 2026-04-15 23:51 | 9.33618 | -81.19407 | 33914 ft | 472 kts | 288° |
| 2026-04-15 23:52 | 9.35825 | -81.25679 | 33912 ft | 472 kts | 288° |
| 2026-04-15 23:52 | 9.38019 | -81.31942 | 33918 ft | 472 kts | 288° |
| 2026-04-15 23:53 | 9.40200 | -81.38172 | 33917 ft | 471 kts | 288° |
| 2026-04-15 23:53 | 9.42392 | -81.44436 | 33921 ft | 471 kts | 288° |
| 2026-04-15 23:54 | 9.44584 | -81.50699 | 33916 ft | 471 kts | 288° |
| 2026-04-15 23:54 | 9.46774 | -81.56961 | 33922 ft | 471 kts | 288° |
| 2026-04-15 23:55 | 9.48955 | -81.63199 | 33922 ft | 471 kts | 288° |
| 2026-04-15 23:55 | 9.51141 | -81.69460 | 33916 ft | 471 kts | 288° |
| 2026-04-15 23:56 | 9.53331 | -81.75734 | 33917 ft | 472 kts | 288° |
| 2026-04-15 23:56 | 9.55509 | -81.81978 | 33917 ft | 472 kts | 288° |
| 2026-04-15 23:57 | 9.57703 | -81.88271 | 33917 ft | 472 kts | 288° |
| 2026-04-15 23:57 | 9.59890 | -81.94549 | 33917 ft | 473 kts | 288° |
| 2026-04-15 23:58 | 9.62066 | -82.00799 | 33917 ft | 473 kts | 288° |
| 2026-04-15 23:58 | 9.64256 | -82.07095 | 33920 ft | 473 kts | 288° |
| 2026-04-15 23:59 | 9.66444 | -82.13387 | 33918 ft | 473 kts | 288° |
| 2026-04-15 23:59 | 9.68634 | -82.19692 | 33919 ft | 474 kts | 289° |
| 2026-04-16 00:00 | 9.70824 | -82.25997 | 33920 ft | 474 kts | 289° |
| 2026-04-16 00:00 | 9.73013 | -82.32306 | 33927 ft | 474 kts | 289° |
| 2026-04-16 00:01 | 9.75189 | -82.38582 | 33926 ft | 475 kts | 289° |
| 2026-04-16 00:01 | 9.77381 | -82.44909 | 33926 ft | 475 kts | 289° |
| 2026-04-16 00:02 | 9.79570 | -82.51231 | 33926 ft | 475 kts | 289° |
| 2026-04-16 00:02 | 9.81765 | -82.57576 | 33931 ft | 476 kts | 289° |
| 2026-04-16 00:03 | 9.83515 | -82.62865 | 33927 ft | 476 kts | 288° |
| 2026-04-16 00:03 | 9.85552 | -82.69264 | 33933 ft | 476 kts | 288° |
| 2026-04-16 00:04 | 9.87926 | -82.76698 | 33926 ft | 477 kts | 288° |
| 2026-04-16 00:04 | 9.89653 | -82.82058 | 33919 ft | 477 kts | 289° |
| 2026-04-16 00:05 | 9.91709 | -82.88431 | 33915 ft | 478 kts | 288° |
| 2026-04-16 00:05 | 9.93776 | -82.94851 | 33940 ft | 478 kts | 288° |
| 2026-04-16 00:06 | 9.95704 | -83.01279 | 33909 ft | 469 kts | 284° |
| 2026-04-16 00:06 | 9.96504 | -83.07783 | 33914 ft | 464 kts | 271° |
| 2026-04-16 00:07 | 9.96341 | -83.14373 | 33945 ft | 476 kts | 270° |
| 2026-04-16 00:07 | 9.96260 | -83.21152 | 33952 ft | 485 kts | 272° |
| 2026-04-16 00:08 | 9.96470 | -83.28009 | 33948 ft | 486 kts | 274° |
| 2026-04-16 00:08 | 9.96813 | -83.34831 | 33969 ft | 487 kts | 274° |
| 2026-04-16 00:09 | 9.97046 | -83.41711 | 33987 ft | 488 kts | 273° |
| 2026-04-16 00:09 | 9.97175 | -83.48555 | 33982 ft | 488 kts | 272° |
| 2026-04-16 00:10 | 9.97277 | -83.55438 | 33997 ft | 487 kts | 272° |
| 2026-04-16 00:10 | 9.97386 | -83.62305 | 33991 ft | 487 kts | 272° |
| 2026-04-16 00:11 | 9.97503 | -83.69065 | 34004 ft | 487 kts | 273° |
| 2026-04-16 00:11 | 9.97623 | -83.75937 | 33989 ft | 487 kts | 273° |
| 2026-04-16 00:12 | 9.97740 | -83.82811 | 34002 ft | 487 kts | 272° |
| 2026-04-16 00:12 | 9.97820 | -83.87620 | 34022 ft | 487 kts | 272° |
| 2026-04-16 00:13 | 9.97924 | -83.93874 | 34016 ft | 489 kts | 272° |
| 2026-04-16 00:13 | 9.98037 | -84.00775 | 34025 ft | 489 kts | 272° |
| 2026-04-16 00:14 | 9.98148 | -84.07698 | 34035 ft | 490 kts | 272° |
| 2026-04-16 00:14 | 9.98259 | -84.14613 | 34034 ft | 490 kts | 272° |
| 2026-04-16 00:15 | 9.98555 | -84.21420 | 34002 ft | 478 kts | 279° |
| 2026-04-16 00:15 | 10.00355 | -84.27867 | 34031 ft | 479 kts | 296° |
| 2026-04-16 00:16 | 10.03428 | -84.33942 | 34016 ft | 487 kts | 299° |
| 2026-04-16 00:16 | 10.06455 | -84.40013 | 33990 ft | 478 kts | 296° |
| 2026-04-16 00:17 | 10.09139 | -84.46218 | 33977 ft | 487 kts | 295° |
| 2026-04-16 00:17 | 10.11925 | -84.52500 | 33934 ft | 488 kts | 296° |
| 2026-04-16 00:18 | 10.14840 | -84.58728 | 33931 ft | 487 kts | 297° |
| 2026-04-16 00:18 | 10.17757 | -84.64907 | 33899 ft | 487 kts | 297° |
| 2026-04-16 00:19 | 10.20658 | -84.71114 | 33919 ft | 486 kts | 297° |
| 2026-04-16 00:19 | 10.23554 | -84.77309 | 33913 ft | 485 kts | 297° |
| 2026-04-16 00:20 | 10.26450 | -84.83504 | 33904 ft | 484 kts | 297° |
| 2026-04-16 00:20 | 10.29337 | -84.89685 | 33897 ft | 484 kts | 297° |
| 2026-04-16 00:21 | 10.32173 | -84.95763 | 33871 ft | 465 kts | 297° |
| 2026-04-16 00:21 | 10.33530 | -84.98679 | 33877 ft | 449 kts | 297° |
| 2026-04-16 00:21 | 10.34846 | -85.01502 | 33860 ft | 435 kts | 297° |
| 2026-04-16 00:22 | 10.36119 | -85.04231 | 33867 ft | 420 kts | 297° |
| 2026-04-16 00:22 | 10.37348 | -85.06867 | 33867 ft | 408 kts | 297° |
| 2026-04-16 00:22 | 10.39736 | -85.12077 | 33874 ft | 404 kts | 297° |
| 2026-04-16 00:23 | 10.42083 | -85.17253 | 33882 ft | 403 kts | 297° |
| 2026-04-16 00:23 | 10.44466 | -85.22399 | 33879 ft | 406 kts | 297° |
| 2026-04-16 00:24 | 10.46895 | -85.27610 | 33877 ft | 409 kts | 297° |
| 2026-04-16 00:24 | 10.49330 | -85.32849 | 33869 ft | 410 kts | 297° |
| 2026-04-16 00:25 | 10.51765 | -85.38104 | 33853 ft | 409 kts | 297° |
| 2026-04-16 00:25 | 10.54185 | -85.43330 | 33851 ft | 407 kts | 297° |
| 2026-04-16 00:26 | 10.56452 | -85.48533 | 33833 ft | 404 kts | 288° |
| 2026-04-16 00:26 | 10.56986 | -85.51354 | 33758 ft | 409 kts | 277° |
| 2026-04-16 00:26 | 10.57005 | -85.54249 | 33365 ft | 410 kts | 269° |
| 2026-04-16 00:27 | 10.56600 | -85.57114 | 32912 ft | 410 kts | 259° |
| 2026-04-16 00:27 | 10.55830 | -85.59907 | 32535 ft | 408 kts | 256° |
| 2026-04-16 00:27 | 10.55007 | -85.62646 | 32180 ft | 403 kts | 257° |
| 2026-04-16 00:27 | 10.54293 | -85.65377 | 31814 ft | 398 kts | 259° |
| 2026-04-16 00:28 | 10.53653 | -85.68100 | 31450 ft | 394 kts | 259° |
| 2026-04-16 00:28 | 10.53036 | -85.70785 | 31055 ft | 387 kts | 265° |
| 2026-04-16 00:28 | 10.53133 | -85.73476 | 30352 ft | 382 kts | 290° |
| 2026-04-16 00:28 | 10.54302 | -85.75880 | 29758 ft | 380 kts | 308° |
| 2026-04-16 00:29 | 10.56101 | -85.77841 | 29089 ft | 381 kts | 321° |
| 2026-04-16 00:29 | 10.58297 | -85.79356 | 28449 ft | 384 kts | 333° |
| 2026-04-16 00:29 | 10.60807 | -85.80288 | 27890 ft | 385 kts | 348° |
| 2026-04-16 00:29 | 10.63472 | -85.80451 | 27446 ft | 385 kts | 5° |
| 2026-04-16 00:30 | 10.66024 | -85.79795 | 27077 ft | 384 kts | 22° |
| 2026-04-16 00:30 | 10.68324 | -85.78358 | 26704 ft | 385 kts | 39° |
| 2026-04-16 00:30 | 10.70091 | -85.76346 | 26305 ft | 388 kts | 53° |
| 2026-04-16 00:30 | 10.71367 | -85.73924 | 25913 ft | 390 kts | 67° |
| 2026-04-16 00:31 | 10.71934 | -85.71224 | 25483 ft | 392 kts | 82° |
| 2026-04-16 00:31 | 10.72105 | -85.68467 | 25154 ft | 388 kts | 84° |
| 2026-04-16 00:31 | 10.72272 | -85.65772 | 24916 ft | 375 kts | 81° |
| 2026-04-16 00:31 | 10.72548 | -85.63162 | 24740 ft | 367 kts | 79° |
| 2026-04-16 00:32 | 10.72838 | -85.60618 | 24574 ft | 358 kts | 82° |
| 2026-04-16 00:32 | 10.72694 | -85.58089 | 24086 ft | 366 kts | 103° |
| 2026-04-16 00:32 | 10.71673 | -85.55715 | 23517 ft | 377 kts | 121° |
| 2026-04-16 00:32 | 10.69974 | -85.53629 | 22855 ft | 386 kts | 135° |
| 2026-04-16 00:33 | 10.67782 | -85.52009 | 22165 ft | 395 kts | 151° |
| 2026-04-16 00:33 | 10.65191 | -85.51028 | 21486 ft | 403 kts | 168° |
| 2026-04-16 00:33 | 10.62382 | -85.50887 | 20833 ft | 409 kts | 187° |
| 2026-04-16 00:33 | 10.59670 | -85.51648 | 20190 ft | 413 kts | 205° |
| 2026-04-16 00:34 | 10.57285 | -85.53253 | 19559 ft | 409 kts | 223° |
| 2026-04-16 00:34 | 10.55550 | -85.55456 | 18896 ft | 393 kts | 240° |
| 2026-04-16 00:34 | 10.54464 | -85.57943 | 18272 ft | 379 kts | 255° |
| 2026-04-16 00:34 | 10.54059 | -85.60540 | 17574 ft | 366 kts | 266° |
| 2026-04-16 00:35 | 10.53908 | -85.63092 | 16878 ft | 355 kts | 267° |
| 2026-04-16 00:35 | 10.53719 | -85.65565 | 16187 ft | 346 kts | 264° |
| 2026-04-16 00:35 | 10.53451 | -85.67965 | 15519 ft | 339 kts | 264° |
| 2026-04-16 00:35 | 10.53180 | -85.70323 | 14865 ft | 332 kts | 265° |
| 2026-04-16 00:36 | 10.53256 | -85.72622 | 14185 ft | 322 kts | 288° |
| 2026-04-16 00:36 | 10.54285 | -85.74545 | 13559 ft | 305 kts | 319° |
| 2026-04-16 00:36 | 10.56025 | -85.75621 | 12898 ft | 287 kts | 347° |
| 2026-04-16 00:36 | 10.57960 | -85.75840 | 12212 ft | 277 kts | 6° |
| 2026-04-16 00:37 | 10.59828 | -85.75473 | 11541 ft | 271 kts | 22° |
| 2026-04-16 00:37 | 10.61444 | -85.74552 | 10873 ft | 266 kts | 41° |
| 2026-04-16 00:37 | 10.62675 | -85.73162 | 10225 ft | 263 kts | 56° |
| 2026-04-16 00:37 | 10.63426 | -85.71481 | 9553 ft | 264 kts | 79° |
| 2026-04-16 00:38 | 10.63621 | -85.69625 | 8883 ft | 263 kts | 85° |
| 2026-04-16 00:38 | 10.63736 | -85.67780 | 8196 ft | 260 kts | 84° |
| 2026-04-16 00:38 | 10.63912 | -85.65961 | 7537 ft | 257 kts | 83° |
| 2026-04-16 00:38 | 10.64113 | -85.64186 | 6890 ft | 255 kts | 83° |
| 2026-04-16 00:39 | 10.64308 | -85.62407 | 6250 ft | 252 kts | 83° |
| 2026-04-16 00:39 | 10.64494 | -85.60653 | 5568 ft | 245 kts | 83° |
| 2026-04-16 00:39 | 10.64667 | -85.58987 | 5082 ft | 227 kts | 82° |
| 2026-04-16 00:39 | 10.64617 | -85.57460 | 4772 ft | 211 kts | 105° |
| 2026-04-16 00:40 | 10.63775 | -85.56193 | 4597 ft | 237 kts | 138° |
| 2026-04-16 00:40 | 10.62234 | -85.55466 | 4419 ft | 252 kts | 166° |
| 2026-04-16 00:40 | 10.60466 | -85.55590 | 4160 ft | 262 kts | 196° |
| 2026-04-16 00:40 | 10.58891 | -85.56538 | 3951 ft | 266 kts | 219° |
| 2026-04-16 00:41 | 10.57568 | -85.57838 | 3729 ft | 263 kts | 223° |
| 2026-04-16 00:41 | 10.56294 | -85.59153 | 3473 ft | 260 kts | 223° |
| 2026-04-16 00:41 | 10.55031 | -85.60460 | 3311 ft | 257 kts | 223° |
| 2026-04-16 00:41 | 10.53795 | -85.61735 | 3125 ft | 257 kts | 223° |
| 2026-04-16 00:42 | 10.52543 | -85.63023 | 3062 ft | 256 kts | 223° |
| 2026-04-16 00:42 | 10.51293 | -85.64325 | 3018 ft | 259 kts | 223° |
| 2026-04-16 00:42 | 10.50036 | -85.65630 | 3007 ft | 256 kts | 223° |
| 2026-04-16 00:42 | 10.48779 | -85.66912 | 2996 ft | 259 kts | 222° |
| 2026-04-16 00:43 | 10.47508 | -85.68225 | 2995 ft | 261 kts | 224° |
| 2026-04-16 00:43 | 10.46239 | -85.69513 | 2984 ft | 255 kts | 223° |
| 2026-04-16 00:43 | 10.45083 | -85.70907 | 2998 ft | 261 kts | 234° |
| 2026-04-16 00:43 | 10.44155 | -85.72460 | 3000 ft | 260 kts | 249° |
| 2026-04-16 00:44 | 10.44022 | -85.74329 | 3006 ft | 273 kts | 286° |
| 2026-04-16 00:44 | 10.44946 | -85.75938 | 2993 ft | 262 kts | 323° |
| 2026-04-16 00:44 | 10.46524 | -85.76693 | 3006 ft | 250 kts | 355° |
| 2026-04-16 00:44 | 10.48239 | -85.76693 | 3009 ft | 247 kts | 12° |
| 2026-04-16 00:45 | 10.49838 | -85.76119 | 2982 ft | 243 kts | 34° |
| 2026-04-16 00:45 | 10.51077 | -85.75015 | 3001 ft | 235 kts | 57° |
| 2026-04-16 00:45 | 10.51820 | -85.73545 | 2999 ft | 233 kts | 66° |
| 2026-04-16 00:45 | 10.52415 | -85.72103 | 2987 ft | 208 kts | 68° |
| 2026-04-16 00:46 | 10.52937 | -85.70845 | 2979 ft | 181 kts | 66° |
| 2026-04-16 00:46 | 10.53388 | -85.69723 | 2996 ft | 165 kts | 68° |
| 2026-04-16 00:46 | 10.53808 | -85.68629 | 2987 ft | 165 kts | 70° |
| 2026-04-16 00:46 | 10.54213 | -85.67583 | 2996 ft | 155 kts | 69° |
| 2026-04-16 00:47 | 10.54617 | -85.66543 | 3002 ft | 162 kts | 69° |
| 2026-04-16 00:47 | 10.55030 | -85.65480 | 2999 ft | 161 kts | 69° |
| 2026-04-16 00:47 | 10.55449 | -85.64422 | 3008 ft | 165 kts | 68° |
| 2026-04-16 00:47 | 10.55924 | -85.63380 | 2988 ft | 161 kts | 63° |
| 2026-04-16 00:48 | 10.56433 | -85.62416 | 2825 ft | 146 kts | 64° |
| 2026-04-16 00:48 | 10.56863 | -85.61496 | 2470 ft | 143 kts | 69° |
| 2026-04-16 00:48 | 10.57202 | -85.60521 | 1791 ft | 151 kts | 75° |
| 2026-04-16 00:48 | 10.57528 | -85.59514 | 1211 ft | 149 kts | 73° |
| 2026-04-16 00:49 | 10.57884 | -85.58546 | 756 ft | 137 kts | 75° |
| 2026-04-16 00:50 | 10.59471 | -85.54083 | 284 ft | 46 kts | 71° |
| 2026-04-16 00:51 | 10.59574 | -85.53843 | 284 ft | 14 kts | 36° |
| 2026-04-16 00:51 | 10.59671 | -85.53850 | 285 ft | 15 kts | 342° |
| 2026-04-16 00:51 | 10.59710 | -85.53864 | 285 ft | 0 kts | 340° |
| 2026-04-16 00:52 | 10.59757 | -85.53871 | 285 ft | 19 kts | 8° |
| 2026-04-16 00:52 | 10.59821 | -85.53788 | 285 ft | 16 kts | 35° |
| 2026-04-16 00:52 | 10.59863 | -85.53784 | 285 ft | 0 kts | 337° |
| 2026-04-16 00:52 | 10.59876 | -85.53803 | 285 ft | 1 kts | 313° |
| 2026-04-16 00:53 | 10.59886 | -85.53811 | 288 ft | 2 kts | 325° |
| 2026-04-16 00:53 | 10.59907 | -85.53811 | 285 ft | 4 kts | 28° |
| 2026-04-16 00:53 | 10.59901 | -85.53784 | 285 ft | 4 kts | 129° |
| 2026-04-16 00:53 | 10.59887 | -85.53776 | 286 ft | 0 kts | 159° |